KNSE/NSE METAR and TAF weather

Enter ICAO airport designator
Station Type Date Time Source
KNSE METAR 2024/07/23 17:56 UTC NOAA

KNSE 231756Z VRB05KT 10SM SCT036 SCT060 BKN250 32/24 A3008 RMK AO2 SLP170 T1 SET T03220244 10322 20239 58009 $


Station Type Date Time Source
KNSE Decoded METAR 2024/07/23 17:56 UTC NOAA

MILTON WHITING FIELD (NORTH), FL, United States (KNSE) 30-44N 87-01W 60M
Jul 23, 2024 - 01:56 PM EDT / 2024.07.23 1756 UTC
Wind: Variable at 6 MPH (5 KT):0
Visibility: 10 mile(s):0
Sky conditions: mostly cloudy
Temperature: 90.0 F (32.2 C)
Heat index: 101.5 F (38.6 C):1
Dew Point: 75.9 F (24.4 C)
Relative Humidity: 63%
Pressure (altimeter): 30.08 in. Hg (1018 hPa)
Pressure tendency: 0.03 inches (0.9 hPa) lower than three hours ago
ob: KNSE 231756Z VRB05KT 10SM SCT036 SCT060 BKN250 32/24 A3008 RMK AO2 SLP170 T1 SET T03220244 10322 20239 58009
cycle: 18

Station Type Date Time Source
KNSE TAF 2024/07/23 15:15 UTC NOAA